Time;durP1;ratioP1;P1;durP2;ratioP2;P2;SDS_P1;SDS_P2;PMS_P1;PMS_P2;Temp;Humidity;BMP_temperature;BMP_pressure;BME280_temperature;BME280_humidity;BME280_pressure;Samples;Min_cycle;Max_cycle;Signal;HPM_P1;HPM_P2
2024/01/30 00:01:42;;;;;;;43.13;27.65;;;7.40;99.90;;;;;;5061150;28;20226;-42
2024/01/30 00:04:07;;;;;;;38.20;26.70;;;7.30;99.90;;;;;;5060417;28;20707;-40
2024/01/30 00:06:33;;;;;;;38.83;28.45;;;7.30;99.90;;;;;;5060902;28;20198;-45
2024/01/30 00:08:59;;;;;;;40.33;27.65;;;7.30;99.90;;;;;;5093272;28;20214;-40
2024/01/30 00:11:28;;;;;;;42.53;29.85;;;7.30;99.90;;;;;;5061288;28;20322;-44
2024/01/30 00:13:56;;;;;;;41.83;28.50;;;7.30;99.90;;;;;;5061171;28;20536;-41
2024/01/30 00:16:24;;;;;;;42.40;28.38;;;7.30;99.90;;;;;;5061037;28;20269;-40
2024/01/30 00:18:53;;;;;;;45.15;28.75;;;7.20;99.90;;;;;;5060520;28;20634;-42
2024/01/30 00:21:19;;;;;;;39.03;27.63;;;7.20;99.90;;;;;;5061505;28;20673;-44
2024/01/30 00:23:45;;;;;;;40.35;27.08;;;7.10;99.90;;;;;;5061272;28;20294;-39
2024/01/30 00:26:11;;;;;;;40.20;27.15;;;7.10;99.90;;;;;;5060697;28;20277;-43
2024/01/30 00:28:41;;;;;;;45.28;26.92;;;7.10;99.90;;;;;;5058449;28;20220;-39
2024/01/30 00:31:07;;;;;;;42.10;27.33;;;7.10;99.90;;;;;;5060891;28;20226;-41
2024/01/30 00:33:32;;;;;;;43.83;29.05;;;7.00;99.90;;;;;;5060494;28;20271;-39
2024/01/30 00:35:58;;;;;;;45.60;27.95;;;7.00;99.90;;;;;;5060854;28;20329;-40
2024/01/30 00:38:24;;;;;;;45.95;27.85;;;7.00;99.90;;;;;;5060780;28;20179;-46
2024/01/30 00:40:50;;;;;;;46.25;29.02;;;7.10;99.90;;;;;;5058927;28;20666;-42
2024/01/30 00:43:16;;;;;;;44.40;29.42;;;7.00;99.90;;;;;;5060753;28;20251;-42
2024/01/30 00:45:43;;;;;;;43.17;29.15;;;7.00;99.90;;;;;;5060547;28;20310;-44
2024/01/30 00:48:09;;;;;;;40.92;28.50;;;7.10;99.90;;;;;;5060123;28;20248;-45
2024/01/30 00:50:35;;;;;;;44.22;29.45;;;7.10;99.90;;;;;;5060616;28;20222;-39
2024/01/30 00:53:00;;;;;;;38.67;28.10;;;7.00;99.90;;;;;;5060649;28;20233;-44
2024/01/30 00:55:26;;;;;;;43.97;29.23;;;7.00;99.90;;;;;;5061420;28;20235;-40
2024/01/30 00:57:52;;;;;;;46.40;29.73;;;7.00;99.90;;;;;;5059892;28;20190;-46
2024/01/30 01:00:18;;;;;;;39.47;28.75;;;7.00;99.90;;;;;;5059881;28;20196;-46
2024/01/30 01:02:44;;;;;;;43.15;29.50;;;6.90;99.90;;;;;;5060629;28;20229;-42
2024/01/30 01:05:10;;;;;;;41.33;28.63;;;6.90;99.90;;;;;;5060034;28;20183;-42
2024/01/30 01:07:36;;;;;;;46.33;29.52;;;6.90;99.90;;;;;;5059258;28;21284;-42
2024/01/30 01:10:02;;;;;;;41.60;29.08;;;6.80;99.90;;;;;;5060274;28;20562;-42
2024/01/30 01:12:29;;;;;;;46.08;29.92;;;6.90;99.90;;;;;;5060347;28;20225;-44
2024/01/30 01:14:55;;;;;;;48.50;30.30;;;6.90;99.90;;;;;;5060705;28;20286;-39
2024/01/30 01:17:21;;;;;;;48.67;30.42;;;6.90;99.90;;;;;;5060719;28;20273;-44
2024/01/30 01:19:46;;;;;;;41.97;29.60;;;6.90;99.90;;;;;;5060762;28;20206;-42
2024/01/30 01:22:12;;;;;;;45.53;29.80;;;6.90;99.90;;;;;;5060127;28;20198;-44
2024/01/30 01:24:38;;;;;;;50.33;30.65;;;7.00;99.90;;;;;;5060532;28;20226;-45
2024/01/30 01:27:05;;;;;;;44.75;30.60;;;7.00;99.90;;;;;;5060366;28;20195;-42
2024/01/30 01:29:31;;;;;;;49.78;31.00;;;7.00;99.90;;;;;;5060068;28;20194;-43
2024/01/30 01:31:58;;;;;;;45.75;31.42;;;7.00;99.90;;;;;;5060234;28;20218;-45
2024/01/30 01:34:24;;;;;;;46.42;30.63;;;7.00;99.90;;;;;;5059737;28;20194;-38
2024/01/30 01:36:50;;;;;;;49.47;29.83;;;7.00;99.90;;;;;;5060697;28;20642;-40
2024/01/30 01:39:17;;;;;;;46.80;31.90;;;7.00;99.90;;;;;;5060166;28;20269;-45
2024/01/30 01:41:42;;;;;;;44.67;31.25;;;7.00;99.90;;;;;;5060102;28;20209;-41
2024/01/30 01:44:09;;;;;;;49.13;30.33;;;7.00;99.90;;;;;;5059925;28;20226;-40
2024/01/30 01:46:35;;;;;;;48.22;30.20;;;7.00;99.90;;;;;;5060197;28;20191;-42
2024/01/30 01:49:03;;;;;;;45.13;31.50;;;7.00;99.90;;;;;;5060127;28;20191;-41
2024/01/30 01:51:31;;;;;;;49.00;31.50;;;7.00;99.90;;;;;;5060185;28;20757;-44
2024/01/30 01:53:58;;;;;;;44.05;30.90;;;7.00;99.90;;;;;;5059686;28;20190;-45
2024/01/30 01:56:25;;;;;;;41.60;29.73;;;7.00;99.90;;;;;;5059272;28;20207;-43
2024/01/30 01:58:54;;;;;;;45.00;30.30;;;7.00;99.90;;;;;;5061582;28;20180;-44
2024/01/30 02:01:21;;;;;;;44.28;30.67;;;7.00;99.90;;;;;;5063379;28;20244;-45
2024/01/30 02:03:47;;;;;;;48.88;31.65;;;7.00;99.90;;;;;;5063454;28;20221;-42
2024/01/30 02:06:14;;;;;;;47.47;32.30;;;7.00;99.90;;;;;;5063341;28;20298;-43
2024/01/30 02:08:40;;;;;;;45.90;31.30;;;7.00;99.90;;;;;;5063182;28;20263;-44
2024/01/30 02:11:06;;;;;;;45.30;31.95;;;7.00;99.90;;;;;;5045994;28;20198;-42
2024/01/30 02:13:32;;;;;;;49.35;32.25;;;7.00;99.90;;;;;;5062505;28;20850;-43
2024/01/30 02:15:58;;;;;;;47.55;30.52;;;7.00;99.90;;;;;;5063843;28;20178;-42
2024/01/30 02:18:23;;;;;;;49.78;31.23;;;7.00;99.90;;;;;;5061795;28;20281;-42
2024/01/30 02:20:53;;;;;;;47.15;31.02;;;7.00;99.90;;;;;;5064026;28;20503;-43
2024/01/30 02:23:20;;;;;;;44.38;30.48;;;7.00;99.90;;;;;;5061493;28;20224;-40
2024/01/30 02:25:46;;;;;;;45.65;30.27;;;7.00;99.90;;;;;;5062692;28;20199;-40
2024/01/30 02:28:15;;;;;;;43.90;30.17;;;7.10;99.90;;;;;;5062194;28;20228;-42
2024/01/30 02:30:43;;;;;;;45.47;31.33;;;7.00;99.90;;;;;;5063359;28;20202;-39
2024/01/30 02:33:09;;;;;;;44.60;28.92;;;7.10;99.90;;;;;;5062831;28;20210;-42
2024/01/30 02:35:35;;;;;;;42.55;30.77;;;7.10;99.90;;;;;;5062328;28;20199;-43
2024/01/30 02:38:01;;;;;;;48.42;31.05;;;7.10;99.90;;;;;;5063065;28;20182;-45
2024/01/30 02:40:26;;;;;;;43.17;29.42;;;7.10;99.90;;;;;;5060969;28;20190;-42
2024/01/30 02:42:52;;;;;;;42.08;29.65;;;7.10;99.90;;;;;;5060061;28;20193;-42
2024/01/30 02:45:18;;;;;;;43.85;30.20;;;7.10;99.90;;;;;;5062844;28;20569;-40
2024/01/30 02:47:46;;;;;;;40.15;29.58;;;7.10;99.90;;;;;;5062855;28;20194;-40
2024/01/30 02:50:11;;;;;;;44.70;28.27;;;7.20;99.90;;;;;;5063017;28;20186;-41
2024/01/30 02:52:37;;;;;;;41.50;28.55;;;7.20;99.90;;;;;;5062911;28;20236;-39
2024/01/30 02:55:03;;;;;;;48.10;29.95;;;7.20;99.90;;;;;;5063203;28;20205;-40
2024/01/30 02:57:29;;;;;;;43.72;29.83;;;7.20;99.90;;;;;;5062148;28;20183;-41
2024/01/30 02:59:55;;;;;;;45.83;27.98;;;7.20;99.90;;;;;;5062615;28;20780;-42
2024/01/30 03:02:20;;;;;;;42.00;28.80;;;7.20;99.90;;;;;;5062801;28;20199;-42
2024/01/30 03:04:46;;;;;;;42.45;28.25;;;7.20;99.90;;;;;;5062901;28;20677;-43
2024/01/30 03:07:12;;;;;;;38.45;28.38;;;7.10;99.90;;;;;;5044276;28;20195;-39
2024/01/30 03:09:38;;;;;;;38.45;27.20;;;7.20;99.90;;;;;;5061052;28;20202;-43
2024/01/30 03:12:04;;;;;;;55.97;26.42;;;7.10;99.90;;;;;;5061783;28;20283;-39
2024/01/30 03:14:31;;;;;;;38.63;27.52;;;7.10;99.90;;;;;;5062458;28;20186;-41
2024/01/30 03:16:57;;;;;;;39.92;27.20;;;7.10;99.90;;;;;;5061935;28;20259;-45
2024/01/30 03:19:23;;;;;;;42.67;28.23;;;7.10;99.90;;;;;;5062744;28;20225;-44
2024/01/30 03:21:49;;;;;;;38.45;26.73;;;7.10;99.90;;;;;;5062116;28;20225;-42
2024/01/30 03:24:15;;;;;;;43.33;27.08;;;7.10;99.90;;;;;;5062116;28;20221;-43
2024/01/30 03:26:41;;;;;;;39.97;28.10;;;7.10;99.90;;;;;;5062168;28;20654;-40
2024/01/30 03:29:07;;;;;;;40.00;27.85;;;7.10;99.90;;;;;;5061826;28;20194;-42
2024/01/30 03:31:33;;;;;;;38.92;26.85;;;7.10;99.90;;;;;;5061875;28;20241;-41
2024/01/30 03:33:58;;;;;;;41.42;26.52;;;7.10;99.90;;;;;;5061538;28;20632;-42
2024/01/30 03:36:24;;;;;;;38.00;27.10;;;7.10;99.90;;;;;;5061620;28;20218;-43
2024/01/30 03:38:50;;;;;;;39.88;26.05;;;7.10;99.90;;;;;;5061935;28;20235;-47
2024/01/30 03:41:16;;;;;;;43.38;28.17;;;7.10;99.90;;;;;;5061294;28;20187;-43
2024/01/30 03:43:41;;;;;;;40.33;27.65;;;7.20;99.90;;;;;;5061939;28;20220;-44
2024/01/30 03:46:07;;;;;;;41.53;26.88;;;7.10;99.90;;;;;;5062356;28;20574;-43
2024/01/30 03:48:33;;;;;;;39.85;27.25;;;7.10;99.90;;;;;;5059604;28;20243;-40
2024/01/30 03:50:59;;;;;;;40.33;26.75;;;7.10;99.90;;;;;;5060663;28;21173;-49
2024/01/30 03:53:25;;;;;;;43.25;27.30;;;7.20;99.90;;;;;;5061525;28;20678;-40
2024/01/30 03:55:51;;;;;;;36.67;25.85;;;7.20;99.90;;;;;;5061816;28;20190;-39
2024/01/30 03:58:16;;;;;;;37.38;24.90;;;7.20;99.90;;;;;;5060370;28;20240;-39
2024/01/30 04:00:42;;;;;;;38.42;25.70;;;7.20;99.90;;;;;;5061024;28;20194;-45
2024/01/30 04:03:08;;;;;;;38.90;25.70;;;7.20;99.90;;;;;;5061712;28;20190;-41
2024/01/30 04:05:33;;;;;;;36.25;26.33;;;7.20;99.90;;;;;;5060206;28;20301;-39
2024/01/30 04:07:59;;;;;;;36.60;25.63;;;7.20;99.90;;;;;;5061383;28;20205;-43
2024/01/30 04:10:25;;;;;;;34.20;25.08;;;7.20;99.90;;;;;;5059469;28;20378;-42
2024/01/30 04:12:54;;;;;;;34.53;24.45;;;7.30;99.90;;;;;;5060718;28;20226;-39
2024/01/30 04:15:20;;;;;;;37.10;25.48;;;7.30;99.90;;;;;;5061808;28;20189;-43
2024/01/30 04:17:46;;;;;;;35.88;25.33;;;7.30;99.90;;;;;;5061529;28;20182;-41
2024/01/30 04:20:16;;;;;;;34.90;24.08;;;7.40;99.90;;;;;;5059883;28;20198;-49
2024/01/30 04:22:46;;;;;;;37.72;25.77;;;7.40;99.90;;;;;;5060139;28;20195;-44
2024/01/30 04:25:13;;;;;;;35.97;23.73;;;7.40;99.90;;;;;;5060825;28;20208;-45
2024/01/30 04:27:39;;;;;;;33.65;23.00;;;7.50;99.90;;;;;;5061109;28;20744;-44
2024/01/30 04:30:05;;;;;;;31.98;23.83;;;7.50;99.90;;;;;;5059729;28;20264;-45
2024/01/30 04:32:32;;;;;;;32.50;22.13;;;7.60;99.90;;;;;;5060573;28;20240;-43
2024/01/30 04:34:58;;;;;;;32.22;22.52;;;7.60;99.90;;;;;;5060920;28;20186;-43
2024/01/30 04:37:24;;;;;;;34.72;22.27;;;7.70;99.90;;;;;;5061203;28;20665;-43
2024/01/30 04:39:50;;;;;;;31.48;22.05;;;7.70;99.90;;;;;;5061275;28;20194;-41
2024/01/30 04:42:16;;;;;;;33.47;21.88;;;7.80;99.90;;;;;;5060061;28;20205;-43
2024/01/30 04:44:42;;;;;;;33.28;21.90;;;7.80;99.90;;;;;;5061025;28;20194;-44
2024/01/30 04:47:10;;;;;;;32.75;21.80;;;7.80;99.90;;;;;;5060622;28;20208;-43
2024/01/30 04:49:36;;;;;;;34.33;20.83;;;7.80;99.90;;;;;;5060627;28;20182;-46
2024/01/30 04:52:02;;;;;;;29.95;21.60;;;7.80;99.90;;;;;;5059308;28;20229;-44
2024/01/30 04:54:28;;;;;;;29.20;21.52;;;7.90;99.90;;;;;;5060466;28;20191;-43
2024/01/30 04:56:53;;;;;;;31.65;21.38;;;8.00;99.90;;;;;;5060738;28;20214;-42
2024/01/30 04:59:19;;;;;;;27.25;19.95;;;8.00;99.90;;;;;;5060012;28;20197;-43
2024/01/30 05:01:45;;;;;;;30.92;20.00;;;8.10;99.90;;;;;;5060922;28;20198;-42
2024/01/30 05:04:11;;;;;;;30.88;20.77;;;8.10;99.90;;;;;;5060788;28;20619;-40
2024/01/30 05:06:37;;;;;;;29.63;20.25;;;8.10;99.90;;;;;;5060729;28;20194;-45
2024/01/30 05:09:04;;;;;;;28.17;19.98;;;8.20;99.90;;;;;;5060372;28;20213;-40
2024/01/30 05:11:30;;;;;;;27.10;18.75;;;8.20;99.90;;;;;;5056583;28;20224;-41
2024/01/30 05:13:56;;;;;;;26.88;18.98;;;8.30;99.90;;;;;;5059919;28;20214;-42
2024/01/30 05:16:22;;;;;;;28.38;19.20;;;8.30;99.90;;;;;;5060793;28;20244;-40
2024/01/30 05:18:48;;;;;;;28.63;18.23;;;8.30;99.90;;;;;;5058783;28;20205;-42
2024/01/30 05:21:14;;;;;;;31.65;18.70;;;8.40;99.90;;;;;;5059337;28;20190;-42
2024/01/30 05:23:41;;;;;;;25.85;18.20;;;8.40;99.90;;;;;;5059366;28;20307;-43
2024/01/30 05:26:08;;;;;;;25.38;18.63;;;8.40;99.90;;;;;;5060751;28;20193;-41
2024/01/30 05:28:33;;;;;;;31.67;19.35;;;8.40;99.90;;;;;;5060078;28;20201;-43
2024/01/30 05:30:59;;;;;;;24.73;17.35;;;8.50;99.90;;;;;;5059750;28;20659;-47
2024/01/30 05:33:25;;;;;;;24.75;17.70;;;8.50;99.90;;;;;;5060673;28;20619;-46
2024/01/30 05:35:54;;;;;;;29.40;18.67;;;8.50;99.90;;;;;;5064575;28;20218;-40
2024/01/30 05:38:20;;;;;;;28.02;18.08;;;8.50;99.90;;;;;;5064503;28;20174;-46
2024/01/30 05:40:45;;;;;;;23.70;17.75;;;8.60;99.90;;;;;;5062997;28;20190;-45
2024/01/30 05:43:11;;;;;;;26.70;18.50;;;8.60;99.90;;;;;;5063612;28;20252;-44
2024/01/30 05:45:37;;;;;;;31.45;18.27;;;8.60;99.90;;;;;;5064461;28;20592;-42
2024/01/30 05:48:04;;;;;;;27.95;18.10;;;8.60;99.90;;;;;;5063958;28;20255;-41
2024/01/30 05:50:30;;;;;;;26.30;17.70;;;8.60;99.90;;;;;;5063995;28;20195;-41
2024/01/30 05:52:56;;;;;;;24.45;17.33;;;8.60;99.90;;;;;;5063432;28;20574;-42
2024/01/30 05:55:22;;;;;;;24.73;18.33;;;8.60;99.90;;;;;;5063881;28;20297;-42
2024/01/30 05:57:47;;;;;;;25.65;18.75;;;8.60;99.90;;;;;;5063163;28;20592;-40
2024/01/30 06:00:14;;;;;;;26.10;18.33;;;8.60;99.90;;;;;;5063486;28;20183;-42
2024/01/30 06:02:39;;;;;;;27.60;18.60;;;8.60;99.90;;;;;;5063461;28;20199;-41
2024/01/30 06:05:05;;;;;;;26.95;17.20;;;8.60;99.90;;;;;;5062853;28;20203;-42
2024/01/30 06:07:31;;;;;;;26.55;18.10;;;8.60;99.90;;;;;;5063952;28;20186;-42
2024/01/30 06:09:57;;;;;;;29.15;18.48;;;8.60;99.90;;;;;;5063378;28;20494;-46
2024/01/30 06:12:23;;;;;;;26.30;17.73;;;8.60;99.90;;;;;;5062803;28;20241;-41
2024/01/30 06:14:49;;;;;;;29.15;18.63;;;8.60;99.90;;;;;;5063047;28;20197;-44
2024/01/30 06:17:14;;;;;;;26.70;18.77;;;8.60;99.90;;;;;;5063619;28;20616;-50
2024/01/30 06:19:40;;;;;;;28.70;19.05;;;8.60;99.90;;;;;;5064189;28;20193;-42
2024/01/30 06:22:06;;;;;;;26.33;17.55;;;8.60;99.90;;;;;;5063205;28;20202;-46
2024/01/30 06:24:33;;;;;;;24.38;17.13;;;8.70;99.90;;;;;;5063040;28;20223;-39
2024/01/30 06:26:59;;;;;;;34.97;19.67;;;8.70;99.90;;;;;;5061852;28;20643;-45
2024/01/30 06:29:26;;;;;;;26.75;17.75;;;8.60;99.90;;;;;;5057530;28;20182;-47
2024/01/30 06:31:52;;;;;;;25.50;17.67;;;8.60;99.90;;;;;;5062555;28;20214;-43
2024/01/30 06:34:19;;;;;;;24.85;17.38;;;8.70;99.90;;;;;;5063066;28;20179;-40
2024/01/30 06:36:44;;;;;;;23.92;17.10;;;8.70;99.90;;;;;;5060589;28;20285;-43
2024/01/30 06:39:10;;;;;;;29.15;18.52;;;8.70;99.90;;;;;;5062583;28;20321;-46
2024/01/30 06:41:36;;;;;;;23.88;16.52;;;8.70;99.90;;;;;;5057637;28;20199;-40
2024/01/30 06:44:06;;;;;;;25.60;18.00;;;8.70;99.90;;;;;;5062544;28;20531;-44
2024/01/30 06:46:32;;;;;;;23.45;16.73;;;8.70;99.90;;;;;;5062714;28;20198;-42
2024/01/30 06:48:58;;;;;;;25.77;17.13;;;8.70;99.90;;;;;;5062989;28;20186;-45
2024/01/30 06:51:24;;;;;;;26.25;16.15;;;8.70;99.90;;;;;;5062542;28;20550;-41
2024/01/30 06:53:49;;;;;;;25.10;17.25;;;8.80;99.90;;;;;;5045143;28;20252;-41
2024/01/30 06:56:20;;;;;;;25.48;18.35;;;8.80;99.90;;;;;;5092466;28;20309;-43
2024/01/30 06:58:49;;;;;;;22.58;16.40;;;8.80;99.90;;;;;;5060770;28;20199;-46
2024/01/30 07:01:16;;;;;;;27.70;17.98;;;8.80;99.90;;;;;;5062026;28;20664;-41
2024/01/30 07:03:42;;;;;;;27.50;17.15;;;8.80;99.90;;;;;;5060578;28;20186;-43
2024/01/30 07:06:08;;;;;;;27.67;17.23;;;8.80;99.90;;;;;;5062980;28;20198;-43
2024/01/30 07:08:34;;;;;;;24.60;17.38;;;8.80;99.90;;;;;;5060368;28;20182;-43
2024/01/30 07:11:00;;;;;;;27.38;17.20;;;8.80;99.90;;;;;;5062580;28;20195;-42
2024/01/30 07:13:25;;;;;;;25.88;17.85;;;8.90;99.90;;;;;;5061790;28;20291;-39
2024/01/30 07:15:51;;;;;;;30.38;18.10;;;8.90;99.90;;;;;;5061530;28;20278;-42
2024/01/30 07:18:17;;;;;;;23.63;17.02;;;8.90;99.90;;;;;;5062028;28;20190;-45
2024/01/30 07:20:46;;;;;;;26.33;17.70;;;8.90;99.90;;;;;;5060129;28;20623;-48
2024/01/30 07:23:16;;;;;;;24.70;16.70;;;8.90;99.90;;;;;;5062131;28;20206;-47
2024/01/30 07:25:43;;;;;;;27.02;16.88;;;9.00;99.90;;;;;;5061417;28;22492;-42
2024/01/30 07:28:13;;;;;;;26.15;17.63;;;9.00;99.90;;;;;;5061286;28;20197;-45
2024/01/30 07:30:39;;;;;;;24.52;17.25;;;9.00;99.90;;;;;;5061884;28;21206;-46
2024/01/30 07:33:05;;;;;;;27.02;16.80;;;9.10;99.90;;;;;;5061240;28;20210;-46
2024/01/30 07:35:30;;;;;;;25.80;16.90;;;9.10;99.90;;;;;;5061965;28;20714;-43
2024/01/30 07:37:57;;;;;;;25.40;16.55;;;9.00;99.90;;;;;;5060934;28;20186;-43
2024/01/30 07:40:23;;;;;;;28.67;18.05;;;9.10;99.90;;;;;;5060292;28;20885;-43
2024/01/30 07:42:50;;;;;;;24.60;16.15;;;9.10;99.90;;;;;;5059958;28;20201;-45
2024/01/30 07:45:16;;;;;;;24.58;16.67;;;9.10;99.90;;;;;;5061073;28;20213;-45
2024/01/30 07:47:42;;;;;;;23.70;15.93;;;9.10;99.90;;;;;;5061531;28;20194;-44
2024/01/30 07:50:09;;;;;;;25.23;17.15;;;9.10;99.90;;;;;;5076671;28;20203;-41
2024/01/30 07:52:34;;;;;;;23.58;16.55;;;9.10;99.90;;;;;;5060461;28;20229;-44
2024/01/30 07:55:00;;;;;;;24.40;16.40;;;9.10;99.90;;;;;;5060132;28;20213;-43
2024/01/30 07:57:26;;;;;;;24.48;16.95;;;9.20;99.90;;;;;;5059250;28;20589;-42
2024/01/30 07:59:52;;;;;;;22.98;16.25;;;9.20;99.90;;;;;;5060284;28;20194;-42
2024/01/30 08:02:17;;;;;;;24.98;16.25;;;9.20;99.90;;;;;;5043630;28;20310;-40
2024/01/30 08:04:43;;;;;;;24.70;16.13;;;9.20;99.90;;;;;;5043203;28;20276;-46
2024/01/30 08:07:09;;;;;;;24.75;16.90;;;9.30;99.90;;;;;;5060582;28;20255;-42
2024/01/30 08:09:35;;;;;;;24.75;16.63;;;9.20;99.90;;;;;;5061248;28;20195;-42
2024/01/30 08:12:00;;;;;;;24.23;16.88;;;9.30;99.90;;;;;;5061251;28;20226;-43
2024/01/30 08:14:26;;;;;;;26.30;16.38;;;9.30;99.90;;;;;;5060020;28;20253;-46
2024/01/30 08:16:52;;;;;;;26.85;16.05;;;9.30;99.90;;;;;;5061282;28;20213;-41
2024/01/30 08:19:19;;;;;;;23.90;16.42;;;9.40;99.90;;;;;;5061007;28;20222;-45
2024/01/30 08:21:44;;;;;;;24.60;15.38;;;9.40;99.90;;;;;;5061078;28;20202;-48
2024/01/30 08:24:10;;;;;;;26.00;15.40;;;9.40;99.90;;;;;;5061408;28;20239;-48
2024/01/30 08:26:36;;;;;;;23.23;15.98;;;9.40;99.90;;;;;;5060950;28;20341;-47
2024/01/30 08:29:02;;;;;;;24.77;16.25;;;9.40;99.90;;;;;;5061328;28;20683;-42
2024/01/30 08:31:28;;;;;;;23.35;15.88;;;9.40;99.90;;;;;;5091525;28;20221;-44
2024/01/30 08:33:54;;;;;;;21.10;15.25;;;9.40;99.90;;;;;;5059422;28;20728;-41
2024/01/30 08:36:20;;;;;;;23.42;15.88;;;9.40;99.90;;;;;;5059899;28;20182;-40
2024/01/30 08:38:46;;;;;;;23.70;15.48;;;9.40;99.90;;;;;;5061108;28;20596;-48
2024/01/30 08:41:11;;;;;;;23.38;15.68;;;9.50;99.90;;;;;;5060606;28;20191;-46
2024/01/30 08:43:37;;;;;;;23.05;15.45;;;9.50;99.90;;;;;;5061089;28;20182;-43
2024/01/30 08:46:03;;;;;;;22.95;15.30;;;9.60;99.90;;;;;;5059614;28;20202;-51
2024/01/30 08:48:29;;;;;;;22.50;15.80;;;9.60;99.90;;;;;;5059640;28;20421;-44
2024/01/30 08:50:55;;;;;;;22.45;14.88;;;9.80;99.90;;;;;;5060587;28;20259;-47
2024/01/30 08:53:21;;;;;;;25.65;15.82;;;9.80;99.90;;;;;;5061075;28;20206;-44
2024/01/30 08:55:46;;;;;;;21.30;14.95;;;9.80;99.90;;;;;;5060461;28;20190;-49
2024/01/30 08:58:12;;;;;;;22.17;15.07;;;9.80;99.90;;;;;;5060175;28;20197;-41
2024/01/30 09:00:38;;;;;;;24.02;15.30;;;9.80;99.90;;;;;;5060223;28;20198;-47
2024/01/30 09:03:04;;;;;;;21.40;14.88;;;9.80;99.90;;;;;;5060853;28;20194;-48
2024/01/30 09:05:30;;;;;;;25.95;14.82;;;9.80;99.90;;;;;;5060273;28;20259;-43
2024/01/30 09:07:56;;;;;;;24.42;14.85;;;9.80;99.90;;;;;;5059982;28;20656;-48
2024/01/30 09:10:21;;;;;;;20.50;14.48;;;9.90;99.90;;;;;;5059378;28;20289;-45
2024/01/30 09:12:47;;;;;;;22.50;14.98;;;9.90;99.90;;;;;;5060222;28;20234;-45
2024/01/30 09:15:13;;;;;;;21.85;14.73;;;9.90;99.90;;;;;;5060717;28;20202;-45
2024/01/30 09:17:39;;;;;;;21.77;14.63;;;9.90;99.90;;;;;;5059960;28;21239;-50
2024/01/30 09:20:06;;;;;;;22.15;15.05;;;10.00;99.90;;;;;;5060761;28;20305;-45
2024/01/30 09:22:31;;;;;;;23.92;14.77;;;10.00;99.90;;;;;;5058218;28;20275;-49
2024/01/30 09:24:57;;;;;;;21.73;15.13;;;10.10;99.90;;;;;;5060510;28;20331;-43
2024/01/30 09:27:23;;;;;;;23.17;14.48;;;10.10;99.90;;;;;;5059620;28;20194;-47
2024/01/30 09:29:49;;;;;;;22.10;14.75;;;10.20;99.90;;;;;;5060329;28;20198;-49
2024/01/30 09:32:15;;;;;;;20.33;14.75;;;10.30;99.90;;;;;;5059689;28;20666;-46
2024/01/30 09:34:41;;;;;;;21.48;14.23;;;10.30;99.90;;;;;;5058773;28;21263;-50
2024/01/30 09:37:07;;;;;;;19.35;13.68;;;10.40;99.90;;;;;;5060183;28;20190;-45
2024/01/30 09:39:33;;;;;;;23.55;14.07;;;10.50;99.90;;;;;;5060309;28;20194;-48
2024/01/30 09:42:25;;;;;;;21.05;14.07;;;10.60;99.90;;;;;;5059561;28;20213;-43
2024/01/30 09:44:52;;;;;;;20.20;13.98;;;10.70;99.90;;;;;;5059897;28;20187;-42
2024/01/30 09:47:17;;;;;;;21.02;13.70;;;10.80;99.90;;;;;;5060423;28;20214;-49
2024/01/30 09:49:44;;;;;;;23.13;13.98;;;10.90;99.90;;;;;;5060239;28;20249;-46
2024/01/30 09:52:10;;;;;;;27.38;14.07;;;10.90;99.90;;;;;;5059459;28;20671;-48
2024/01/30 09:54:37;;;;;;;25.60;14.30;;;11.00;99.90;;;;;;5059637;28;20707;-46
2024/01/30 09:57:04;;;;;;;27.23;14.77;;;11.00;99.90;;;;;;5059712;28;20201;-44
2024/01/30 09:59:30;;;;;;;22.40;13.63;;;11.10;99.90;;;;;;5060427;28;20720;-48
2024/01/30 10:01:56;;;;;;;23.42;13.25;;;11.10;99.90;;;;;;5059836;28;20285;-49
2024/01/30 10:04:22;;;;;;;26.60;13.68;;;11.20;99.90;;;;;;5060316;28;20244;-44
2024/01/30 10:06:48;;;;;;;22.08;13.50;;;11.20;99.90;;;;;;5059583;28;20530;-43
2024/01/30 10:09:13;;;;;;;21.33;14.07;;;11.20;99.90;;;;;;5060160;28;20198;-48
2024/01/30 10:11:39;;;;;;;23.48;13.38;;;11.20;99.90;;;;;;5059400;28;20316;-49
2024/01/30 10:14:05;;;;;;;21.83;13.98;;;11.30;99.90;;;;;;5059730;28;20265;-45
2024/01/30 10:16:31;;;;;;;23.52;14.40;;;11.30;99.90;;;;;;5059984;28;20435;-47
2024/01/30 10:18:56;;;;;;;20.33;13.70;;;11.30;99.90;;;;;;5059829;28;20650;-46
2024/01/30 10:21:22;;;;;;;21.70;13.23;;;11.40;99.90;;;;;;5063263;28;20195;-45
2024/01/30 10:23:49;;;;;;;21.23;13.32;;;11.50;99.90;;;;;;5063047;28;20285;-47
2024/01/30 10:26:17;;;;;;;22.90;13.32;;;11.50;99.90;;;;;;5063731;28;20234;-49
2024/01/30 10:28:43;;;;;;;21.98;14.02;;;11.50;99.90;;;;;;5062403;28;20687;-46
2024/01/30 10:31:09;;;;;;;27.75;13.75;;;11.60;99.90;;;;;;5062966;28;20194;-47
2024/01/30 10:33:35;;;;;;;28.70;13.48;;;11.60;99.90;;;;;;5062793;28;20210;-43
2024/01/30 10:36:05;;;;;;;21.30;13.07;;;11.60;99.90;;;;;;5063778;28;20269;-43
2024/01/30 10:38:32;;;;;;;20.35;13.07;;;11.60;99.90;;;;;;5061847;28;20267;-44
2024/01/30 10:41:00;;;;;;;22.75;13.40;;;11.70;99.90;;;;;;5061967;28;20182;-45
2024/01/30 10:43:35;;;;;;;26.45;13.30;;;11.60;99.90;;;;;;5062942;28;20225;-43
2024/01/30 10:46:10;;;;;;;20.73;13.43;;;11.70;99.90;;;;;;5063441;28;20677;-47
2024/01/30 10:48:42;;;;;;;21.88;13.80;;;11.70;99.90;;;;;;5063380;28;20201;-46
2024/01/30 10:51:09;;;;;;;23.45;13.32;;;11.70;99.90;;;;;;5061626;28;20182;-44
2024/01/30 10:53:35;;;;;;;22.77;13.23;;;11.70;99.90;;;;;;5062806;28;21279;-46
2024/01/30 10:56:03;;;;;;;22.65;13.95;;;11.70;99.90;;;;;;5062539;28;20198;-47
2024/01/30 10:58:29;;;;;;;26.83;13.10;;;11.70;99.90;;;;;;5062509;28;20178;-50
2024/01/30 11:00:56;;;;;;;23.25;13.20;;;11.70;99.90;;;;;;5062719;28;21329;-45
2024/01/30 11:03:23;;;;;;;23.88;13.75;;;11.70;99.90;;;;;;5061466;28;20339;-45
2024/01/30 11:05:52;;;;;;;18.52;12.60;;;11.70;99.90;;;;;;5062363;28;20191;-46
2024/01/30 11:08:25;;;;;;;22.67;13.80;;;11.70;99.90;;;;;;5044336;28;20203;-46
2024/01/30 11:10:57;;;;;;;22.92;14.00;;;11.70;99.90;;;;;;5060148;28;20198;-47
2024/01/30 11:13:30;;;;;;;23.30;14.25;;;11.70;99.90;;;;;;5062366;28;20283;-48
2024/01/30 11:16:00;;;;;;;25.17;14.77;;;11.70;99.90;;;;;;5062191;28;20190;-41
2024/01/30 11:18:28;;;;;;;27.33;14.32;;;11.70;99.90;;;;;;5061811;28;20221;-46
2024/01/30 11:20:57;;;;;;;25.25;13.30;;;11.70;99.90;;;;;;5062196;28;20256;-42
2024/01/30 11:23:25;;;;;;;23.75;13.40;;;11.70;99.90;;;;;;5061731;28;20353;-48
2024/01/30 11:25:53;;;;;;;27.00;13.20;;;11.70;99.90;;;;;;5061271;28;20193;-44
2024/01/30 11:28:20;;;;;;;19.58;11.77;;;11.70;99.90;;;;;;5060025;28;20198;-43
2024/01/30 11:30:47;;;;;;;21.63;11.20;;;11.70;99.90;;;;;;5061750;28;20686;-44
2024/01/30 11:33:14;;;;;;;23.70;10.63;;;11.70;99.90;;;;;;5061684;28;20347;-45
2024/01/30 11:35:41;;;;;;;21.67;9.20;;;11.80;99.90;;;;;;5059783;28;20191;-49
2024/01/30 11:38:09;;;;;;;18.77;8.98;;;11.80;99.90;;;;;;5060331;28;20194;-46
2024/01/30 11:40:37;;;;;;;21.17;9.15;;;11.70;99.90;;;;;;5061937;28;20194;-45
2024/01/30 11:43:04;;;;;;;20.30;8.60;;;11.70;99.90;;;;;;5061561;28;20724;-46
2024/01/30 11:45:31;;;;;;;16.98;7.95;;;11.60;99.90;;;;;;5061905;28;20203;-44
2024/01/30 11:47:59;;;;;;;12.27;5.95;;;11.60;99.90;;;;;;5061821;28;20194;-45
2024/01/30 11:50:25;;;;;;;12.95;6.25;;;11.60;99.90;;;;;;5060118;28;20705;-48
2024/01/30 11:52:51;;;;;;;12.50;6.63;;;11.60;99.90;;;;;;5060005;28;20214;-47
2024/01/30 11:55:18;;;;;;;14.80;6.30;;;11.60;99.90;;;;;;5076309;28;20194;-48
2024/01/30 11:57:44;;;;;;;14.77;4.93;;;11.60;99.90;;;;;;5060865;28;20199;-53
2024/01/30 12:00:16;;;;;;;15.70;5.15;;;11.60;99.90;;;;;;5061138;28;20205;-51
2024/01/30 12:02:43;;;;;;;9.65;4.43;;;11.50;99.90;;;;;;5061604;28;20199;-45
2024/01/30 12:05:09;;;;;;;10.48;4.70;;;11.60;99.90;;;;;;5059328;28;20236;-44
2024/01/30 12:07:35;;;;;;;8.38;4.00;;;11.50;99.90;;;;;;5060909;28;20182;-44
2024/01/30 12:10:02;;;;;;;7.90;3.72;;;11.50;99.90;;;;;;5076477;28;20195;-44
2024/01/30 12:12:29;;;;;;;12.57;3.70;;;11.50;99.90;;;;;;5060419;28;20695;-44
2024/01/30 12:14:56;;;;;;;9.80;3.50;;;11.50;99.90;;;;;;5060830;28;20878;-47
2024/01/30 12:17:30;;;;;;;9.57;3.30;;;11.40;99.90;;;;;;5060446;28;20666;-50
2024/01/30 12:20:17;;;;;;;6.80;2.80;;;11.40;99.90;;;;;;5092972;28;20190;-47
2024/01/30 12:22:45;;;;;;;5.45;2.50;;;11.40;99.90;;;;;;5060983;28;20194;-46
2024/01/30 12:25:12;;;;;;;4.53;2.38;;;11.30;99.90;;;;;;5057917;28;20259;-49
2024/01/30 12:27:40;;;;;;;5.68;1.80;;;11.30;99.90;;;;;;5060597;28;20647;-47
2024/01/30 12:30:10;;;;;;;5.95;1.70;;;11.30;99.90;;;;;;5060802;28;21209;-48
2024/01/30 12:32:42;;;;;;;4.32;1.50;;;11.30;99.90;;;;;;5060556;28;20215;-47